Time;durP1;ratioP1;P1;durP2;ratioP2;P2;SDS_P1;SDS_P2;PMS_P1;PMS_P2;Temp;Humidity;BMP_temperature;BMP_pressure;BME280_temperature;BME280_humidity;BME280_pressure;Samples;Min_cycle;Max_cycle;Signal;HPM_P1;HPM_P2
2022/03/09 00:01:04;;;;;;;4.63;2.90;;;-1.50;99.90;;;;;;5105470;28;20740;-74
2022/03/09 00:03:30;;;;;;;3.40;2.73;;;-1.50;99.90;;;;;;5105284;27;20532;-74
2022/03/09 00:05:55;;;;;;;3.63;2.60;;;-1.40;99.90;;;;;;5105781;28;20211;-74
2022/03/09 00:08:21;;;;;;;4.73;2.80;;;-1.50;99.90;;;;;;5105476;28;20180;-75
2022/03/09 00:10:47;;;;;;;3.60;2.50;;;-1.60;99.90;;;;;;5105285;28;20608;-75
2022/03/09 00:13:13;;;;;;;3.80;2.90;;;-1.70;99.90;;;;;;5105457;27;20208;-74
2022/03/09 00:15:38;;;;;;;5.57;3.03;;;-1.70;99.90;;;;;;5086579;28;20234;-74
2022/03/09 00:18:04;;;;;;;4.60;3.00;;;-1.70;99.90;;;;;;5105362;28;20241;-75
2022/03/09 00:20:30;;;;;;;2.83;2.50;;;-1.80;99.90;;;;;;5104805;28;20180;-74
2022/03/09 00:22:55;;;;;;;3.90;2.77;;;-1.80;99.90;;;;;;5086974;28;20195;-75
2022/03/09 00:25:21;;;;;;;4.63;2.93;;;-1.80;99.90;;;;;;5104774;27;20665;-74
2022/03/09 00:27:46;;;;;;;5.00;2.77;;;-1.70;99.90;;;;;;5105205;28;20176;-75
2022/03/09 00:30:12;;;;;;;3.60;2.77;;;-1.60;99.90;;;;;;5080788;28;20188;-75
2022/03/09 00:32:39;;;;;;;6.03;2.70;;;-1.60;99.90;;;;;;5104948;28;20688;-75
2022/03/09 00:35:07;;;;;;;3.43;2.30;;;-1.70;99.90;;;;;;5104355;28;20196;-74
2022/03/09 00:37:32;;;;;;;5.47;2.80;;;-1.50;99.90;;;;;;5104753;28;20214;-74
2022/03/09 00:39:58;;;;;;;3.77;2.40;;;-1.30;99.90;;;;;;5085658;28;20192;-75
2022/03/09 00:42:24;;;;;;;4.57;3.20;;;-1.40;99.90;;;;;;5105164;28;20319;-74
2022/03/09 00:44:49;;;;;;;3.47;2.40;;;-1.40;99.90;;;;;;5104888;28;20227;-75
2022/03/09 00:47:15;;;;;;;3.50;2.43;;;-1.40;99.90;;;;;;5105153;28;20209;-74
2022/03/09 00:49:41;;;;;;;8.47;3.00;;;-1.40;99.90;;;;;;5085725;28;20279;-74
2022/03/09 00:52:06;;;;;;;3.47;2.63;;;-1.50;99.90;;;;;;5105339;28;20632;-75
2022/03/09 00:54:32;;;;;;;4.50;3.10;;;-1.50;99.90;;;;;;5104475;28;20283;-73
2022/03/09 00:56:57;;;;;;;4.53;3.10;;;-1.70;99.90;;;;;;5105194;28;20192;-74
2022/03/09 00:59:23;;;;;;;3.47;2.73;;;-1.70;99.90;;;;;;5090291;27;20176;-74
2022/03/09 01:01:49;;;;;;;4.43;2.63;;;-1.80;99.90;;;;;;5088506;28;20180;-73
2022/03/09 01:04:14;;;;;;;6.23;2.70;;;-1.80;99.90;;;;;;5108621;28;20627;-75
2022/03/09 01:06:40;;;;;;;3.07;2.43;;;-1.80;99.90;;;;;;5109389;27;20222;-73
2022/03/09 01:09:05;;;;;;;4.07;2.93;;;-1.80;99.90;;;;;;5109147;27;20192;-74
2022/03/09 01:11:31;;;;;;;4.47;2.63;;;-1.90;99.90;;;;;;5109045;27;20267;-74
2022/03/09 01:13:57;;;;;;;6.23;2.93;;;-1.90;99.90;;;;;;5108708;28;20331;-74
2022/03/09 01:16:23;;;;;;;3.80;2.57;;;-1.80;99.90;;;;;;5109491;27;20669;-74
2022/03/09 01:18:48;;;;;;;4.27;2.90;;;-1.90;99.90;;;;;;5090713;28;20638;-74
2022/03/09 01:21:14;;;;;;;5.10;3.03;;;-1.90;99.90;;;;;;5108912;27;20651;-74
2022/03/09 01:23:40;;;;;;;4.00;3.07;;;-1.90;99.90;;;;;;5108539;27;20172;-73
2022/03/09 01:26:05;;;;;;;4.80;3.00;;;-1.80;99.90;;;;;;5108654;27;20196;-73
2022/03/09 01:28:31;;;;;;;3.93;3.00;;;-1.60;99.90;;;;;;5110309;27;20226;-73
2022/03/09 01:30:57;;;;;;;5.03;2.80;;;-1.60;99.90;;;;;;5108886;27;20187;-73
2022/03/09 01:33:22;;;;;;;4.30;2.73;;;-1.60;99.90;;;;;;5089020;27;20749;-73
2022/03/09 01:35:48;;;;;;;5.40;3.43;;;-1.70;99.90;;;;;;5108464;27;20265;-74
2022/03/09 01:38:13;;;;;;;3.43;2.93;;;-1.70;99.90;;;;;;5108755;27;20249;-74
2022/03/09 01:40:39;;;;;;;4.33;2.80;;;-1.70;99.90;;;;;;5108099;28;20646;-74
2022/03/09 01:43:05;;;;;;;4.67;3.00;;;-1.80;99.90;;;;;;5108063;27;20188;-74
2022/03/09 01:45:31;;;;;;;4.20;3.27;;;-1.90;99.90;;;;;;5107767;27;20207;-74
2022/03/09 01:47:56;;;;;;;3.63;2.80;;;-1.90;99.90;;;;;;5108566;28;20321;-74
2022/03/09 01:50:22;;;;;;;4.60;2.63;;;-1.90;99.90;;;;;;5108700;28;20266;-73
2022/03/09 01:52:48;;;;;;;3.23;2.67;;;-1.90;99.90;;;;;;5107945;28;20348;-74
2022/03/09 01:55:14;;;;;;;7.17;2.87;;;-1.90;99.90;;;;;;5107338;27;20204;-73
2022/03/09 01:57:41;;;;;;;4.00;3.00;;;-2.10;99.90;;;;;;5108129;28;20220;-73
2022/03/09 02:00:07;;;;;;;3.53;2.73;;;-2.10;99.90;;;;;;5108272;28;20632;-73
2022/03/09 02:02:33;;;;;;;6.33;2.63;;;-2.10;99.90;;;;;;5108209;28;20180;-74
2022/03/09 02:04:59;;;;;;;5.03;2.90;;;-1.80;99.90;;;;;;5107868;27;20206;-75
2022/03/09 02:10:10;;;;;;;3.20;2.70;;;-1.70;99.90;;;;;;5107437;27;20703;-74
2022/03/09 02:12:37;;;;;;;4.57;2.77;;;-1.80;99.90;;;;;;5108290;28;20184;-74
2022/03/09 02:15:03;;;;;;;5.30;2.70;;;-1.90;99.90;;;;;;5106998;27;20655;-73
2022/03/09 02:17:29;;;;;;;4.87;2.87;;;-1.90;99.90;;;;;;5107906;27;20204;-74
2022/03/09 02:19:56;;;;;;;6.20;3.03;;;-2.00;99.90;;;;;;5108019;27;20183;-74
2022/03/09 02:22:37;;;;;;;3.80;2.67;;;-2.10;99.90;;;;;;5107851;27;20214;-73
2022/03/09 02:25:09;;;;;;;3.90;2.33;;;-2.10;99.90;;;;;;5107050;27;20615;-74
2022/03/09 02:27:35;;;;;;;5.10;2.80;;;-2.10;99.90;;;;;;5107421;28;20241;-74
2022/03/09 02:30:03;;;;;;;6.63;3.30;;;-2.20;99.90;;;;;;5107746;27;20176;-74
2022/03/09 02:32:28;;;;;;;5.47;3.50;;;-2.20;99.90;;;;;;5107324;28;20204;-75
2022/03/09 02:34:54;;;;;;;4.00;3.00;;;-2.20;99.90;;;;;;5107336;28;20262;-74
2022/03/09 02:37:20;;;;;;;4.40;3.43;;;-2.20;99.90;;;;;;5106751;28;20303;-75
2022/03/09 02:39:46;;;;;;;3.73;3.13;;;-2.30;99.90;;;;;;5089256;28;20528;-74
2022/03/09 02:42:11;;;;;;;5.03;3.10;;;-2.40;99.90;;;;;;5107369;27;20188;-74
2022/03/09 02:44:37;;;;;;;4.63;3.33;;;-2.40;99.90;;;;;;5106782;27;20203;-73
2022/03/09 02:47:04;;;;;;;4.33;3.27;;;-2.40;99.90;;;;;;5106989;28;20173;-74
2022/03/09 02:49:30;;;;;;;5.53;3.20;;;-2.50;99.90;;;;;;5107692;27;20990;-74
2022/03/09 02:51:55;;;;;;;5.40;3.03;;;-2.50;99.90;;;;;;5106928;28;20183;-74
2022/03/09 02:54:21;;;;;;;4.80;3.30;;;-2.60;99.90;;;;;;5106874;27;20231;-75
2022/03/09 02:56:46;;;;;;;4.37;3.07;;;-2.60;99.90;;;;;;5107244;28;20562;-73
2022/03/09 02:59:12;;;;;;;5.80;3.40;;;-2.60;99.90;;;;;;5106654;28;20200;-74
2022/03/09 03:01:38;;;;;;;4.03;2.90;;;-2.70;99.90;;;;;;5106166;28;20192;-73
2022/03/09 03:04:03;;;;;;;5.00;3.37;;;-2.80;99.90;;;;;;5105803;28;20184;-75
2022/03/09 03:06:29;;;;;;;8.67;3.53;;;-2.70;99.90;;;;;;5106754;27;20191;-75
2022/03/09 03:08:56;;;;;;;5.43;3.83;;;-2.70;99.90;;;;;;5106777;28;20195;-74
2022/03/09 03:11:21;;;;;;;4.07;3.10;;;-2.80;99.90;;;;;;5106875;27;20196;-74
2022/03/09 03:13:50;;;;;;;5.30;3.20;;;-2.80;99.90;;;;;;5087746;28;20192;-74
2022/03/09 03:16:16;;;;;;;5.33;3.40;;;-2.80;99.90;;;;;;5106399;27;20253;-74
2022/03/09 03:18:42;;;;;;;5.33;3.33;;;-2.70;99.90;;;;;;5107078;27;20198;-74
2022/03/09 03:21:08;;;;;;;5.37;3.37;;;-2.80;99.90;;;;;;5105717;28;20623;-74
2022/03/09 03:23:35;;;;;;;5.73;3.40;;;-2.80;99.90;;;;;;5106465;28;20698;-75
2022/03/09 03:26:03;;;;;;;4.47;3.13;;;-2.80;99.90;;;;;;5088246;28;20210;-74
2022/03/09 03:28:29;;;;;;;6.57;3.10;;;-2.80;99.90;;;;;;5106576;27;20180;-73
2022/03/09 03:30:55;;;;;;;4.47;3.30;;;-2.90;99.90;;;;;;5088273;28;20269;-74
2022/03/09 03:33:21;;;;;;;4.30;3.50;;;-2.90;99.90;;;;;;5106226;27;20179;-74
2022/03/09 03:35:48;;;;;;;4.57;3.30;;;-3.00;99.90;;;;;;5106107;27;20734;-74
2022/03/09 03:38:15;;;;;;;5.23;3.20;;;-2.90;99.90;;;;;;5105824;28;20241;-74
2022/03/09 03:40:40;;;;;;;5.63;3.17;;;-2.90;99.90;;;;;;5106240;28;20319;-74
2022/03/09 03:43:06;;;;;;;4.97;3.33;;;-2.90;99.90;;;;;;5087891;28;20743;-74
2022/03/09 03:45:32;;;;;;;6.13;3.53;;;-3.00;99.90;;;;;;5109062;27;20219;-74
2022/03/09 03:47:59;;;;;;;5.13;3.33;;;-2.90;99.90;;;;;;5106219;28;20219;-74
2022/03/09 03:50:25;;;;;;;4.33;3.40;;;-2.80;99.90;;;;;;5105755;27;20172;-74
2022/03/09 03:52:51;;;;;;;5.00;3.57;;;-2.90;99.90;;;;;;5106075;28;20239;-74
2022/03/09 03:55:17;;;;;;;5.33;3.70;;;-2.90;99.90;;;;;;5105066;28;20232;-74
2022/03/09 03:57:43;;;;;;;4.70;2.87;;;-3.00;99.90;;;;;;5105920;28;20294;-73
2022/03/09 04:00:10;;;;;;;8.70;4.10;;;-2.80;99.90;;;;;;5104881;28;20259;-74
2022/03/09 04:02:36;;;;;;;4.60;3.17;;;-2.90;99.90;;;;;;5105840;28;20624;-73
2022/03/09 04:05:02;;;;;;;4.53;3.73;;;-2.90;99.90;;;;;;5086683;28;20231;-74
2022/03/09 04:07:27;;;;;;;5.10;3.60;;;-3.00;99.90;;;;;;5087549;28;20196;-77
2022/03/09 04:09:54;;;;;;;5.13;3.30;;;-3.00;99.90;;;;;;5105536;28;20548;-74
2022/03/09 04:12:20;;;;;;;5.53;3.20;;;-3.10;99.90;;;;;;5087749;28;20188;-75
2022/03/09 04:14:46;;;;;;;4.13;3.40;;;-3.00;99.90;;;;;;5105134;28;20249;-74
2022/03/09 04:17:11;;;;;;;4.73;3.30;;;-3.00;99.90;;;;;;5105788;27;20564;-73
2022/03/09 04:19:37;;;;;;;5.50;3.43;;;-3.00;99.90;;;;;;5105874;28;20254;-73
2022/03/09 04:22:03;;;;;;;5.07;3.53;;;-3.00;99.90;;;;;;5104814;28;20177;-74
2022/03/09 04:24:29;;;;;;;5.23;3.60;;;-2.90;99.90;;;;;;5104377;28;20196;-74
2022/03/09 04:26:54;;;;;;;6.10;3.83;;;-3.00;99.90;;;;;;5105680;28;20309;-74
2022/03/09 04:29:20;;;;;;;4.80;2.97;;;-3.00;99.90;;;;;;5105413;27;20199;-74
2022/03/09 04:31:46;;;;;;;6.80;3.73;;;-3.10;99.90;;;;;;5104904;27;20252;-74
2022/03/09 04:34:11;;;;;;;4.97;3.30;;;-3.10;99.90;;;;;;5104942;28;20184;-74
2022/03/09 04:36:37;;;;;;;5.37;3.80;;;-3.20;99.90;;;;;;5105312;28;20219;-74
2022/03/09 04:39:03;;;;;;;4.97;3.37;;;-3.20;99.90;;;;;;5104814;28;20512;-75
2022/03/09 04:41:29;;;;;;;5.97;3.67;;;-3.20;99.90;;;;;;5104370;28;20176;-74
2022/03/09 04:43:55;;;;;;;5.67;3.50;;;-3.20;99.90;;;;;;5103603;28;20665;-74
2022/03/09 04:46:21;;;;;;;6.00;3.43;;;-3.20;99.90;;;;;;5105082;28;20325;-74
2022/03/09 04:48:48;;;;;;;4.20;3.10;;;-3.20;99.90;;;;;;5104869;28;20180;-73
2022/03/09 04:51:15;;;;;;;5.43;3.87;;;-3.20;99.90;;;;;;5103012;28;20542;-74
2022/03/09 04:53:41;;;;;;;5.80;3.90;;;-3.20;99.90;;;;;;5103218;28;20176;-74
2022/03/09 04:56:06;;;;;;;5.10;3.57;;;-3.20;99.90;;;;;;5102236;28;20200;-74
2022/03/09 04:58:32;;;;;;;5.73;3.37;;;-3.20;99.90;;;;;;5102742;28;20177;-74
2022/03/09 05:00:58;;;;;;;4.93;3.67;;;-3.30;99.90;;;;;;5103594;28;20208;-74
2022/03/09 05:03:23;;;;;;;5.77;3.70;;;-3.30;99.90;;;;;;5102888;28;20233;-74
2022/03/09 05:05:49;;;;;;;5.53;3.87;;;-3.30;99.90;;;;;;5104243;28;20218;-74
2022/03/09 05:08:15;;;;;;;6.23;3.40;;;-3.30;99.90;;;;;;5104600;28;20188;-74
2022/03/09 05:10:40;;;;;;;4.53;3.43;;;-3.40;99.90;;;;;;5104955;28;20180;-73
2022/03/09 05:13:06;;;;;;;5.40;3.37;;;-3.30;99.90;;;;;;5104717;28;20211;-73
2022/03/09 05:15:32;;;;;;;4.93;3.60;;;-3.30;99.90;;;;;;5104063;28;20200;-73
2022/03/09 05:17:57;;;;;;;5.70;3.50;;;-3.40;99.90;;;;;;5104571;28;20196;-74
2022/03/09 05:20:24;;;;;;;6.20;3.53;;;-3.40;99.90;;;;;;5105269;28;20536;-73
2022/03/09 05:22:50;;;;;;;5.37;3.00;;;-3.30;99.90;;;;;;5104667;28;20181;-74
2022/03/09 05:25:16;;;;;;;4.80;3.43;;;-3.40;99.90;;;;;;5104828;28;20800;-73
2022/03/09 05:27:42;;;;;;;5.10;3.53;;;-3.40;99.90;;;;;;5104520;28;20188;-74
2022/03/09 05:30:09;;;;;;;4.17;2.83;;;-3.50;99.90;;;;;;5086186;28;20715;-74
2022/03/09 05:32:35;;;;;;;7.37;3.97;;;-3.60;99.90;;;;;;5085740;28;20271;-74
2022/03/09 05:35:02;;;;;;;7.30;3.90;;;-3.60;99.90;;;;;;5104119;28;20667;-75
2022/03/09 05:37:29;;;;;;;4.40;3.33;;;-3.60;99.90;;;;;;5104892;28;20540;-74
2022/03/09 05:39:55;;;;;;;5.77;3.23;;;-3.50;99.90;;;;;;5104490;28;20201;-73
2022/03/09 05:42:21;;;;;;;4.83;3.77;;;-3.60;99.90;;;;;;5104553;28;20203;-73
2022/03/09 05:44:46;;;;;;;4.73;3.30;;;-3.60;99.90;;;;;;5084879;28;20231;-73
2022/03/09 05:47:12;;;;;;;5.00;3.40;;;-3.70;99.90;;;;;;5108083;28;20200;-75
2022/03/09 05:49:38;;;;;;;7.63;4.40;;;-3.70;99.90;;;;;;5108679;28;20192;-74
2022/03/09 05:52:04;;;;;;;5.47;3.57;;;-3.70;99.90;;;;;;5108247;27;20184;-75
2022/03/09 05:54:30;;;;;;;4.63;3.00;;;-3.50;99.90;;;;;;5107368;28;20200;-74
2022/03/09 05:56:55;;;;;;;7.17;4.50;;;-3.60;99.90;;;;;;5108068;27;20268;-73
2022/03/09 05:59:21;;;;;;;4.30;3.33;;;-3.60;99.90;;;;;;5107485;27;20191;-74
2022/03/09 06:01:46;;;;;;;7.83;4.17;;;-3.40;99.90;;;;;;5108306;27;20180;-73
2022/03/09 06:04:12;;;;;;;7.37;3.80;;;-3.50;99.90;;;;;;5107081;28;20236;-73
2022/03/09 06:06:38;;;;;;;6.63;3.87;;;-3.50;99.90;;;;;;5106876;27;20274;-74
2022/03/09 06:09:03;;;;;;;4.83;3.90;;;-3.50;99.90;;;;;;5106756;28;20215;-74
2022/03/09 06:11:29;;;;;;;6.27;4.17;;;-3.40;99.90;;;;;;5107457;27;20183;-74
2022/03/09 06:13:55;;;;;;;6.53;3.80;;;-3.50;99.90;;;;;;5106958;28;20221;-74
2022/03/09 06:16:20;;;;;;;5.73;4.03;;;-3.50;99.90;;;;;;5107799;27;20720;-74
2022/03/09 06:18:46;;;;;;;6.53;3.87;;;-3.50;99.90;;;;;;5107373;27;20189;-74
2022/03/09 06:21:13;;;;;;;6.17;4.00;;;-3.40;99.90;;;;;;5106844;27;21387;-75
2022/03/09 06:23:39;;;;;;;6.77;4.00;;;-3.40;99.90;;;;;;5107263;27;20695;-74
2022/03/09 06:26:05;;;;;;;8.37;4.20;;;-3.30;99.90;;;;;;5107278;27;20200;-74
2022/03/09 06:28:31;;;;;;;5.57;4.13;;;-3.30;99.90;;;;;;5106574;27;20187;-73
2022/03/09 06:30:57;;;;;;;4.67;3.80;;;-3.10;99.90;;;;;;5106926;28;20225;-73
2022/03/09 06:33:23;;;;;;;5.10;3.43;;;-3.10;99.90;;;;;;5106469;28;20532;-74
2022/03/09 06:35:49;;;;;;;7.07;3.80;;;-3.00;99.90;;;;;;5107618;27;20216;-73
2022/03/09 06:38:15;;;;;;;6.37;4.07;;;-3.00;99.90;;;;;;5106567;28;20298;-73
2022/03/09 06:40:41;;;;;;;7.47;4.17;;;-3.00;99.90;;;;;;5088578;28;20188;-73
2022/03/09 06:43:07;;;;;;;5.30;4.03;;;-3.00;99.90;;;;;;5107046;27;20183;-74
2022/03/09 06:45:32;;;;;;;8.30;4.40;;;-2.90;99.90;;;;;;5106845;27;20502;-73
2022/03/09 06:47:58;;;;;;;5.23;3.47;;;-2.80;99.90;;;;;;5106439;28;20252;-73
2022/03/09 06:50:24;;;;;;;4.20;3.03;;;-2.70;99.90;;;;;;5106745;27;20707;-73
2022/03/09 06:52:50;;;;;;;4.67;3.23;;;-2.60;99.90;;;;;;5106637;28;20184;-74
2022/03/09 06:55:15;;;;;;;5.27;3.70;;;-2.40;99.90;;;;;;5106932;27;20208;-73
2022/03/09 06:57:41;;;;;;;7.37;3.33;;;-2.30;99.90;;;;;;5107116;28;20225;-73
2022/03/09 07:00:14;;;;;;;4.73;3.10;;;-2.20;99.90;;;;;;5088827;28;20188;-74
2022/03/09 07:02:40;;;;;;;5.47;3.97;;;-2.20;99.90;;;;;;5106753;28;20176;-73
2022/03/09 07:05:06;;;;;;;3.80;2.83;;;-2.10;99.90;;;;;;5107039;27;20294;-72
2022/03/09 07:07:32;;;;;;;7.83;3.80;;;-2.00;99.90;;;;;;5106759;28;20196;-75
2022/03/09 07:09:58;;;;;;;6.73;3.63;;;-1.80;99.90;;;;;;5107028;27;20191;-76
2022/03/09 07:12:24;;;;;;;4.37;3.20;;;-1.70;99.90;;;;;;5107495;27;20188;-73
2022/03/09 07:14:50;;;;;;;4.33;3.30;;;-1.70;99.90;;;;;;5107094;28;20200;-74
2022/03/09 07:17:16;;;;;;;5.20;3.67;;;-1.60;99.90;;;;;;5107939;27;20272;-73
2022/03/09 07:19:42;;;;;;;3.87;3.00;;;-1.50;99.90;;;;;;5107181;27;20229;-73
2022/03/09 07:22:08;;;;;;;5.70;3.17;;;-1.40;99.90;;;;;;5089072;28;20184;-76
2022/03/09 07:24:35;;;;;;;7.83;3.33;;;-1.30;99.90;;;;;;5105898;28;20200;-73
2022/03/09 07:27:00;;;;;;;4.53;3.20;;;-1.20;99.90;;;;;;5107420;27;20691;-74
2022/03/09 07:29:26;;;;;;;7.47;4.00;;;-1.10;99.90;;;;;;5106987;27;20274;-73
2022/03/09 07:31:52;;;;;;;6.07;3.70;;;-0.90;99.90;;;;;;5106464;28;20221;-74
2022/03/09 07:34:19;;;;;;;5.40;3.10;;;-0.80;99.90;;;;;;5106158;27;20236;-73
2022/03/09 07:36:45;;;;;;;6.33;3.70;;;-0.70;99.90;;;;;;5088526;28;20270;-75
2022/03/09 07:39:10;;;;;;;5.50;3.70;;;-0.50;99.90;;;;;;5107470;27;20219;-74
2022/03/09 07:41:36;;;;;;;4.70;3.80;;;-0.30;99.90;;;;;;5106692;27;20172;-74
2022/03/09 07:44:02;;;;;;;5.33;3.30;;;-0.10;99.90;;;;;;5105109;28;20196;-74
2022/03/09 07:46:27;;;;;;;4.33;3.50;;;0.10;99.90;;;;;;5106394;28;20237;-74
2022/03/09 07:48:53;;;;;;;5.80;3.27;;;0.30;99.90;;;;;;5106578;28;20558;-75
2022/03/09 07:51:19;;;;;;;4.93;3.73;;;0.50;99.90;;;;;;5107621;27;20184;-73
2022/03/09 07:53:45;;;;;;;4.77;3.70;;;0.70;99.90;;;;;;5106074;28;20667;-74
2022/03/09 07:56:14;;;;;;;5.60;3.87;;;1.00;99.90;;;;;;5104938;28;20204;-74
2022/03/09 07:58:40;;;;;;;7.33;4.30;;;1.20;99.90;;;;;;5106468;28;20180;-75
2022/03/09 08:01:06;;;;;;;5.20;3.70;;;1.50;99.90;;;;;;5105325;28;20245;-75
2022/03/09 08:03:33;;;;;;;4.90;3.43;;;1.70;99.90;;;;;;5102453;28;20188;-74
2022/03/09 08:05:59;;;;;;;4.63;3.10;;;2.00;99.90;;;;;;5104026;28;20210;-74
2022/03/09 08:08:25;;;;;;;4.77;3.13;;;2.20;99.90;;;;;;5102468;28;20588;-74
2022/03/09 08:10:51;;;;;;;6.10;4.07;;;2.40;99.90;;;;;;5103524;28;20654;-73
2022/03/09 08:13:17;;;;;;;4.73;3.40;;;2.60;99.90;;;;;;5102875;28;20192;-76
2022/03/09 08:15:43;;;;;;;5.17;3.70;;;2.90;99.90;;;;;;5103127;28;20839;-73
2022/03/09 08:18:09;;;;;;;4.73;3.57;;;3.00;99.90;;;;;;5103485;28;20242;-73
2022/03/09 08:20:35;;;;;;;7.00;3.30;;;3.20;99.90;;;;;;5103223;28;20205;-74
2022/03/09 08:23:01;;;;;;;5.27;3.67;;;3.40;99.90;;;;;;5101868;28;20184;-74
2022/03/09 08:25:26;;;;;;;5.50;3.20;;;3.60;99.90;;;;;;5102819;28;20724;-73
2022/03/09 08:27:52;;;;;;;4.50;3.23;;;3.80;99.90;;;;;;5102488;28;20192;-74
2022/03/09 08:30:18;;;;;;;4.17;3.03;;;4.00;99.90;;;;;;5103955;28;20192;-74
2022/03/09 08:32:43;;;;;;;4.47;3.30;;;4.20;99.90;;;;;;5103326;28;20650;-74
2022/03/09 08:35:09;;;;;;;3.50;3.13;;;4.30;99.90;;;;;;5102737;27;20204;-75
2022/03/09 08:37:35;;;;;;;5.47;3.23;;;4.50;99.90;;;;;;5084556;28;20204;-74
2022/03/09 08:40:01;;;;;;;5.40;3.40;;;4.60;99.90;;;;;;5102267;28;20180;-75
2022/03/09 08:42:26;;;;;;;3.87;3.03;;;4.80;99.90;;;;;;5102769;28;20191;-75
2022/03/09 08:44:52;;;;;;;6.27;3.50;;;4.90;99.90;;;;;;5100682;28;20250;-74
2022/03/09 08:47:17;;;;;;;8.17;3.47;;;5.10;99.90;;;;;;5102519;28;20188;-75
2022/03/09 08:49:43;;;;;;;9.00;3.40;;;5.20;99.90;;;;;;5101872;28;20525;-74
2022/03/09 08:52:11;;;;;;;4.87;3.57;;;5.40;99.90;;;;;;5075817;28;20643;-76
2022/03/09 08:54:37;;;;;;;3.60;2.83;;;5.60;99.90;;;;;;5102008;28;20234;-76
2022/03/09 08:57:04;;;;;;;4.97;3.10;;;5.70;99.90;;;;;;5103271;28;20261;-75
2022/03/09 08:59:29;;;;;;;5.10;2.80;;;5.70;99.90;;;;;;5102865;28;20187;-77
2022/03/09 09:01:55;;;;;;;5.23;2.70;;;5.80;99.90;;;;;;5102811;28;20184;-74
2022/03/09 09:04:21;;;;;;;5.67;3.03;;;6.00;99.90;;;;;;5083819;28;20231;-74
2022/03/09 09:06:46;;;;;;;4.70;2.93;;;6.20;99.90;;;;;;5102671;28;20882;-72
2022/03/09 09:09:14;;;;;;;5.30;2.90;;;6.30;99.90;;;;;;5103279;28;20180;-74
2022/03/09 09:11:40;;;;;;;3.00;2.40;;;6.50;99.90;;;;;;5101258;28;20274;-74
2022/03/09 09:14:06;;;;;;;4.30;2.47;;;6.60;99.90;;;;;;5100709;28;20805;-74
2022/03/09 09:16:32;;;;;;;2.97;2.50;;;6.70;99.90;;;;;;5101511;28;20261;-75
2022/03/09 09:18:57;;;;;;;3.13;2.53;;;6.90;99.90;;;;;;5102428;28;20188;-75
2022/03/09 09:21:23;;;;;;;4.33;2.53;;;6.80;99.90;;;;;;5106737;28;20279;-74
2022/03/09 09:23:49;;;;;;;2.23;2.00;;;7.00;99.90;;;;;;5105344;28;20176;-75
2022/03/09 09:26:15;;;;;;;3.93;2.60;;;7.20;99.90;;;;;;5106909;28;20663;-75
2022/03/09 09:28:41;;;;;;;4.43;2.33;;;7.40;99.90;;;;;;5106606;27;20172;-74
2022/03/09 09:31:07;;;;;;;3.40;2.50;;;7.50;99.90;;;;;;5107258;27;20177;-74
2022/03/09 09:33:32;;;;;;;2.70;2.37;;;7.70;99.90;;;;;;5105662;28;20215;-75
2022/03/09 09:35:58;;;;;;;5.17;2.60;;;7.90;99.90;;;;;;5106919;28;20291;-75
2022/03/09 09:38:24;;;;;;;4.57;2.80;;;8.00;99.90;;;;;;5106702;27;20245;-74
2022/03/09 09:40:53;;;;;;;3.03;2.47;;;8.20;99.90;;;;;;5105717;27;20267;-76
2022/03/09 09:43:19;;;;;;;3.30;2.57;;;8.40;99.90;;;;;;5106111;28;20193;-75
2022/03/09 09:45:45;;;;;;;3.70;2.70;;;8.50;99.90;;;;;;5106647;28;20204;-74
2022/03/09 09:48:11;;;;;;;8.33;3.67;;;8.70;99.90;;;;;;5087826;28;20180;-75
2022/03/09 09:50:39;;;;;;;5.13;3.47;;;8.80;99.90;;;;;;5105988;28;20679;-75
2022/03/09 09:53:06;;;;;;;6.27;3.00;;;8.90;98.90;;;;;;5087806;28;20206;-73
2022/03/09 09:55:32;;;;;;;5.53;3.00;;;8.90;97.80;;;;;;5105253;28;20250;-75
2022/03/09 09:57:58;;;;;;;5.93;3.27;;;9.10;98.10;;;;;;5106273;28;20245;-73
2022/03/09 10:00:24;;;;;;;4.10;3.13;;;9.20;97.60;;;;;;5088303;28;20180;-76
2022/03/09 10:02:51;;;;;;;5.23;3.33;;;9.40;98.20;;;;;;5104385;27;20176;-76
2022/03/09 10:05:18;;;;;;;4.37;3.20;;;9.50;96.30;;;;;;5105876;27;20521;-73
2022/03/09 10:08:13;;;;;;;4.60;3.27;;;9.60;95.30;;;;;;5105539;27;20477;-75
2022/03/09 10:10:52;;;;;;;4.30;3.13;;;9.90;95.50;;;;;;5103252;28;20208;-75
2022/03/09 10:13:27;;;;;;;5.40;3.60;;;10.00;95.00;;;;;;5105874;27;20229;-73
2022/03/09 10:16:08;;;;;;;4.53;3.20;;;9.90;93.40;;;;;;5104618;28;20218;-75
2022/03/09 10:18:35;;;;;;;4.67;3.23;;;9.90;92.20;;;;;;5087808;28;20180;-76
2022/03/09 10:21:13;;;;;;;5.00;3.90;;;10.00;92.60;;;;;;5104683;28;20305;-75
2022/03/09 10:23:59;;;;;;;4.67;3.33;;;10.20;93.80;;;;;;5105631;28;20901;-75
2022/03/09 10:26:28;;;;;;;4.37;3.30;;;10.30;93.20;;;;;;5087485;28;20195;-73
2022/03/09 10:29:14;;;;;;;5.90;3.73;;;10.30;93.80;;;;;;5106612;28;20172;-73
2022/03/09 10:31:51;;;;;;;5.00;3.60;;;10.30;91.50;;;;;;5105030;28;20311;-74
2022/03/09 10:34:22;;;;;;;7.87;3.43;;;10.20;90.20;;;;;;5105869;28;20179;-76
2022/03/09 10:37:00;;;;;;;4.60;3.80;;;10.20;90.40;;;;;;5107378;28;20195;-75
2022/03/09 10:39:29;;;;;;;5.30;3.30;;;10.30;90.10;;;;;;5107664;27;20679;-75
2022/03/09 10:41:58;;;;;;;4.30;3.30;;;10.50;88.70;;;;;;5107813;27;20176;-72
2022/03/09 10:44:46;;;;;;;3.70;3.07;;;10.60;88.20;;;;;;5106804;27;20662;-76
2022/03/09 10:47:28;;;;;;;4.70;3.20;;;10.60;86.10;;;;;;5108103;27;20202;-75
2022/03/09 10:49:53;;;;;;;4.37;3.37;;;10.70;83.40;;;;;;5107688;27;20266;-73
2022/03/09 10:52:19;;;;;;;4.37;3.40;;;10.50;77.30;;;;;;5108194;27;20266;-75
2022/03/09 10:54:44;;;;;;;4.23;3.17;;;10.40;76.20;;;;;;5106974;27;20701;-72
2022/03/09 10:57:12;;;;;;;4.47;3.00;;;10.50;77.80;;;;;;5107350;28;20212;-75
2022/03/09 10:59:46;;;;;;;6.53;3.33;;;10.50;75.50;;;;;;5111146;28;20184;-75
2022/03/09 11:02:14;;;;;;;4.63;3.20;;;10.40;74.90;;;;;;5110695;27;20246;-74
2022/03/09 11:04:40;;;;;;;4.43;3.30;;;10.60;76.20;;;;;;5109904;27;20206;-75
2022/03/09 11:07:06;;;;;;;4.50;3.50;;;10.70;72.70;;;;;;5107411;27;20184;-74
2022/03/09 11:09:32;;;;;;;4.73;3.90;;;10.70;74.80;;;;;;5108120;27;20512;-74
2022/03/09 11:11:59;;;;;;;5.13;3.90;;;10.60;75.40;;;;;;5107601;27;20241;-74
2022/03/09 11:14:29;;;;;;;6.07;3.70;;;10.70;75.70;;;;;;5107282;28;20203;-74
2022/03/09 11:16:57;;;;;;;5.87;3.87;;;10.90;73.80;;;;;;5108243;28;20207;-72
2022/03/09 11:19:24;;;;;;;7.32;3.65;;;11.10;75.00;;;;;;5110347;27;20253;-73
2022/03/09 11:21:49;;;;;;;4.43;3.47;;;11.10;76.00;;;;;;5102489;28;20281;-72
2022/03/09 11:24:17;;;;;;;6.53;3.80;;;11.00;74.60;;;;;;5105735;28;20267;-75
2022/03/09 11:26:55;;;;;;;5.82;3.85;;;11.20;75.80;;;;;;5105999;28;20203;-73
2022/03/09 11:29:31;;;;;;;4.90;3.90;;;11.20;73.70;;;;;;5105526;27;20194;-73
2022/03/09 11:31:57;;;;;;;4.50;3.50;;;11.20;73.10;;;;;;5104439;28;20178;-74
2022/03/09 11:34:43;;;;;;;4.87;4.07;;;11.20;73.10;;;;;;5084517;28;20659;-72
2022/03/09 11:37:12;;;;;;;3.77;2.93;;;11.00;72.20;;;;;;5105352;27;20258;-73
2022/03/09 11:39:42;;;;;;;4.75;3.35;;;10.90;73.00;;;;;;5105157;28;20204;-73
2022/03/09 11:42:20;;;;;;;4.47;3.33;;;11.10;73.10;;;;;;5103040;28;20215;-73
2022/03/09 11:44:51;;;;;;;6.60;3.70;;;11.20;73.30;;;;;;5103097;28;20200;-74
2022/03/09 11:47:17;;;;;;;5.37;4.03;;;11.10;73.40;;;;;;5105086;28;20574;-74
2022/03/09 11:49:45;;;;;;;5.43;3.87;;;11.30;72.50;;;;;;5104409;28;20192;-74
2022/03/09 11:52:15;;;;;;;6.05;4.20;;;11.30;72.10;;;;;;5104876;27;20184;-73
2022/03/09 11:54:45;;;;;;;4.83;3.87;;;11.40;72.10;;;;;;5103255;27;20249;-74
2022/03/09 11:57:12;;;;;;;4.28;3.42;;;11.30;71.90;;;;;;5102628;28;20260;-74
2022/03/09 11:59:39;;;;;;;5.60;3.80;;;11.40;72.20;;;;;;5103284;28;20216;-72
2022/03/09 12:02:10;;;;;;;4.57;3.70;;;11.30;71.50;;;;;;5103682;28;20270;-75
2022/03/09 12:07:28;;;;;;;5.32;4.18;;;11.50;71.50;;;;;;5102383;28;20195;-73
2022/03/09 12:09:55;;;;;;;7.88;4.00;;;11.60;73.40;;;;;;5077497;28;20184;-73
2022/03/09 12:12:21;;;;;;;5.55;4.05;;;11.80;74.10;;;;;;5101592;28;20196;-73
2022/03/09 12:15:03;;;;;;;7.22;4.07;;;11.80;72.20;;;;;;5096385;28;20212;-73
2022/03/09 12:17:37;;;;;;;5.07;4.05;;;11.60;71.50;;;;;;5096013;28;20196;-73
2022/03/09 12:20:29;;;;;;;6.43;3.85;;;11.60;72.10;;;;;;5105040;28;20267;-73
2022/03/09 12:23:00;;;;;;;6.40;3.90;;;11.60;71.60;;;;;;5103610;28;20227;-73
2022/03/09 12:25:39;;;;;;;6.03;4.05;;;11.50;71.90;;;;;;5106513;28;20204;-73
2022/03/09 12:28:27;;;;;;;5.53;4.18;;;11.70;72.70;;;;;;5110724;27;20748;-73
2022/03/09 12:31:02;;;;;;;6.18;4.05;;;11.80;70.60;;;;;;5103660;28;20681;-73
2022/03/09 12:33:36;;;;;;;5.45;3.85;;;11.60;69.40;;;;;;5104591;28;20180;-74
2022/03/09 12:36:12;;;;;;;5.00;3.80;;;11.80;70.80;;;;;;5104705;28;20219;-73
2022/03/09 12:38:50;;;;;;;4.70;3.70;;;12.00;67.00;;;;;;5100760;28;20187;-73
2022/03/09 12:41:29;;;;;;;5.65;4.05;;;12.10;67.40;;;;;;5103296;28;20567;-74
2022/03/09 12:43:56;;;;;;;6.35;3.75;;;12.20;66.90;;;;;;5102796;28;20910;-73
2022/03/09 12:46:22;;;;;;;6.95;4.18;;;12.20;67.00;;;;;;5103343;28;20200;-73
2022/03/09 12:48:49;;;;;;;5.95;3.85;;;12.30;69.20;;;;;;5103351;28;20183;-73
2022/03/09 12:51:15;;;;;;;5.63;4.07;;;12.40;67.60;;;;;;5103199;28;20176;-73
2022/03/09 12:53:44;;;;;;;6.13;4.22;;;12.50;68.00;;;;;;5104793;28;20184;-73